Pagina principale
METAR-TAF:

METAR-TAF

Aeroporti :

Barcelona, Venezuela

latitudine: 10-07N, longitudine: 064-41W, altezza: 7 m

Osservazione

Il bollettino è stato emesso 5 ore e 31 minuti fa, alle 00:00 UTC
Vento 8 kt da nord-est
Temperature 29°C
Pressione 1010 hPa
Visibilità 10 km o più
Poco nuvoloso ad un'altezza di 1600 ft

METAR: SVBC 250000Z 04008KT 9999 FEW016 29/XX Q1010

Ora: 01:31 (05:31 UTC)

Previsione

Il bollettino è stato emesso 7 ore e 31 minuti fa, alle 22:00 UTC
Previsione valida dal 25 alle 00 UTC al 26 alle 00 UTC
Vento 4 kt da est
Visibilità 10 km o più
Nubi sparse ad un'altezza di 2000 ft
Nubi sparse ad un'altezza di 10000 ft
Evoluzione graduale
dal 25 alle 05 UTC al 25 alle 09 UTC
Vento 5 kt da est
Visibilità: 9000 m
Nubi sparse ad un'altezza di 1600 ft
Nuvoloso ad un'altezza di 10000 ft
pioviggine debole,

TAF: SVBC 242200Z 2500/2600 08004KT 9999 SCT020 SCT100 TX35/2519Z TN23/2507Z BECMG 2505/2509 08005KT 9000 -DZ SCT016 BKN100

Osservazioni e previsioni meteorologiche di più di 4000 aeroporti (messaggi METAR e TAF).

Le stazioni disponibili sono rappresentate dai dischi gialli e rossi sulla carta.

Puntare il mouse per vedere il nome della stazione.

Clicca sopra per visualizzare le osservazioni e previsioni meteorologiche.

Per cambiare la mappa : fare clic sui pulsanti verdi con una croce nera per ingrandire, il pulsante verde con un trattino per diminuire, o sulla freccia verde per le mappe adiacenti.


METAR-TAF: